createdAt,value
2023-03-02T00:00:16.470Z,202
2023-03-02T00:05:16.383Z,0
2023-03-02T00:10:16.930Z,0
2023-03-02T00:15:16.415Z,0
2023-03-02T00:20:16.645Z,202
2023-03-02T00:25:16.467Z,202
2023-03-02T00:30:16.503Z,0
2023-03-02T00:35:16.423Z,225
2023-03-02T00:40:16.883Z,202
2023-03-02T00:45:16.607Z,202
2023-03-02T00:50:16.475Z,0
2023-03-02T00:55:16.710Z,0
2023-03-02T01:00:16.518Z,0
2023-03-02T01:05:16.537Z,0
2023-03-02T01:10:16.662Z,0
2023-03-02T01:15:16.688Z,0
2023-03-02T01:20:17.113Z,0
2023-03-02T01:25:16.685Z,0
2023-03-02T01:30:16.660Z,0
2023-03-02T01:35:16.655Z,0
2023-03-02T01:40:16.887Z,180
2023-03-02T01:45:17.067Z,0
2023-03-02T01:50:16.665Z,0
2023-03-02T01:55:17.174Z,180
2023-03-02T02:00:16.790Z,0
2023-03-02T02:05:16.917Z,180
2023-03-02T02:10:16.944Z,0
2023-03-02T02:15:16.760Z,0
2023-03-02T02:20:17.040Z,0
2023-03-02T02:25:17.138Z,0
2023-03-02T02:30:17.238Z,0
2023-03-02T02:35:16.807Z,0
2023-03-02T02:40:16.948Z,0
2023-03-02T02:45:16.951Z,0
2023-03-02T02:50:17.005Z,0
2023-03-02T02:55:17.036Z,0
2023-03-02T03:00:16.943Z,0
2023-03-02T03:05:17.117Z,0
2023-03-02T03:10:17.541Z,0
2023-03-02T03:15:16.981Z,0
2023-03-02T03:20:17.183Z,180
2023-03-02T03:25:17.369Z,0
2023-03-02T03:30:17.102Z,0
2023-03-02T03:35:16.991Z,0
2023-03-02T03:40:17.597Z,0
2023-03-02T03:45:17.067Z,0
2023-03-02T03:50:17.101Z,0
2023-03-02T03:55:17.116Z,202
2023-03-02T04:00:17.103Z,202
2023-03-02T04:05:17.054Z,0
2023-03-02T04:10:17.556Z,0
2023-03-02T04:15:17.261Z,202
2023-03-02T04:20:17.261Z,202
2023-03-02T04:25:17.493Z,202
2023-03-02T04:30:17.137Z,202
2023-03-02T04:35:17.133Z,202
2023-03-02T04:40:17.332Z,202
2023-03-02T04:45:17.353Z,202
2023-03-02T04:50:18.474Z,202
2023-03-02T04:55:17.233Z,202
2023-03-02T05:00:16.234Z,202
2023-03-02T05:05:16.282Z,0
2023-03-02T05:10:16.382Z,0
2023-03-02T05:15:16.227Z,202
2023-03-02T05:20:16.876Z,202
2023-03-02T05:25:16.389Z,202
2023-03-02T05:30:16.454Z,202
2023-03-02T05:35:16.329Z,0
2023-03-02T05:40:16.652Z,0
2023-03-02T05:45:16.351Z,0
2023-03-02T05:50:16.493Z,0
2023-03-02T05:55:16.699Z,0
2023-03-02T06:00:16.612Z,0
2023-03-02T06:05:16.443Z,0
2023-03-02T06:10:16.562Z,0
2023-03-02T06:15:16.534Z,0
2023-03-02T06:20:17.026Z,0
2023-03-02T06:25:16.805Z,0
2023-03-02T06:30:18.344Z,0
2023-03-02T06:35:16.724Z,0
2023-03-02T06:40:16.686Z,0
2023-03-02T06:45:16.584Z,0
2023-03-02T06:50:16.568Z,0
2023-03-02T06:55:16.949Z,180
2023-03-02T07:00:16.654Z,180
2023-03-02T07:05:16.807Z,180
2023-03-02T07:10:17.090Z,180
2023-03-02T07:15:16.692Z,180
2023-03-02T07:20:16.706Z,180
2023-03-02T07:25:16.704Z,180
2023-03-02T07:30:16.838Z,180
2023-03-02T07:35:17.261Z,180
2023-03-02T07:40:16.832Z,180
2023-03-02T07:45:16.717Z,0
2023-03-02T07:50:16.752Z,0
2023-03-02T07:55:16.857Z,0
2023-03-02T08:00:16.816Z,0
2023-03-02T08:05:16.733Z,180
2023-03-02T08:10:17.279Z,0
2023-03-02T08:15:16.845Z,0
2023-03-02T08:20:17.099Z,0
2023-03-02T08:25:16.901Z,0
2023-03-02T08:30:16.927Z,180
2023-03-02T08:35:16.910Z,0
2023-03-02T08:40:19.845Z,0
2023-03-02T08:45:16.915Z,0
2023-03-02T08:50:16.995Z,180
2023-03-02T08:55:17.064Z,0
2023-03-02T09:00:17.125Z,0
2023-03-02T09:05:17.006Z,0
2023-03-02T09:10:17.096Z,0
2023-03-02T09:15:17.100Z,0
2023-03-02T09:20:17.131Z,0
2023-03-02T09:25:17.369Z,0
2023-03-02T09:30:18.435Z,0
2023-03-02T09:35:17.313Z,0
2023-03-02T09:40:17.126Z,0
2023-03-02T09:45:18.605Z,0
2023-03-02T09:50:17.181Z,180
2023-03-02T09:55:17.161Z,180
2023-03-02T10:00:19.886Z,0
2023-03-02T10:05:17.218Z,180
2023-03-02T10:10:17.270Z,180
2023-03-02T10:15:17.236Z,180
2023-03-02T10:20:17.491Z,0
2023-03-02T10:25:17.304Z,0
2023-03-02T10:30:17.334Z,0
2023-03-02T10:35:17.498Z,0
2023-03-02T10:40:18.015Z,0
2023-03-02T10:45:17.207Z,0
2023-03-02T10:50:17.631Z,0
2023-03-02T10:55:17.584Z,0
2023-03-02T11:00:17.440Z,0
2023-03-02T11:05:17.335Z,0
2023-03-02T11:10:18.122Z,0
2023-03-02T11:15:17.340Z,0
2023-03-02T11:20:17.624Z,0
2023-03-02T11:25:18.505Z,0
2023-03-02T11:30:17.460Z,0
2023-03-02T11:35:17.621Z,0
2023-03-02T11:40:17.538Z,180
2023-03-02T11:45:17.656Z,0
2023-03-02T11:50:17.939Z,0
2023-03-02T11:55:17.977Z,158
2023-03-02T12:00:17.897Z,158
2023-03-02T12:05:17.516Z,158
2023-03-02T12:10:17.611Z,158
2023-03-02T12:15:17.426Z,158
2023-03-02T12:20:17.649Z,158
2023-03-02T12:25:17.590Z,158
2023-03-02T12:30:17.805Z,158
2023-03-02T12:35:17.816Z,158
2023-03-02T12:40:18.156Z,158
2023-03-02T12:45:17.714Z,0
2023-03-02T12:50:18.044Z,158
2023-03-02T12:55:18.861Z,158
2023-03-02T13:00:18.261Z,158
2023-03-02T13:05:17.734Z,135
2023-03-02T13:10:18.479Z,135
2023-03-02T13:15:17.743Z,135
2023-03-02T13:20:17.754Z,135
2023-03-02T13:25:17.863Z,135
2023-03-02T13:30:17.939Z,135
2023-03-02T13:35:17.776Z,135
2023-03-02T13:40:17.924Z,135
2023-03-02T13:45:17.957Z,135
2023-03-02T13:50:18.968Z,135
2023-03-02T13:55:17.933Z,112
2023-03-02T14:00:17.883Z,135
2023-03-02T14:05:18.167Z,135
2023-03-02T14:10:18.372Z,135
2023-03-02T14:15:17.920Z,112
2023-03-02T14:20:18.264Z,0
2023-03-02T14:25:18.180Z,112
2023-03-02T14:30:18.131Z,112
2023-03-02T14:35:17.943Z,112
2023-03-02T14:40:18.077Z,0
2023-03-02T14:45:17.998Z,0
2023-03-02T14:50:18.109Z,0
2023-03-02T14:55:18.122Z,0
2023-03-02T15:00:18.117Z,0
2023-03-02T15:05:18.004Z,0
2023-03-02T15:10:18.190Z,0
2023-03-02T15:15:18.400Z,0
2023-03-02T15:20:18.263Z,0
2023-03-02T15:25:18.618Z,0
2023-03-02T15:30:18.236Z,0
2023-03-02T15:35:18.185Z,0
2023-03-02T15:40:19.151Z,0
2023-03-02T15:45:18.600Z,0
2023-03-02T15:50:18.154Z,0
2023-03-02T15:55:16.267Z,0
2023-03-02T16:00:16.472Z,0
2023-03-02T16:05:17.553Z,0
2023-03-02T16:10:16.394Z,0
2023-03-02T16:15:16.216Z,0
2023-03-02T16:20:16.433Z,68
2023-03-02T16:25:16.523Z,0
2023-03-02T16:30:16.622Z,45
2023-03-02T16:35:16.414Z,45
2023-03-02T16:40:16.500Z,45
2023-03-02T16:45:16.328Z,45
2023-03-02T16:50:16.435Z,45
2023-03-02T16:55:16.542Z,45
2023-03-02T17:00:16.713Z,0
2023-03-02T17:05:16.380Z,0
2023-03-02T17:10:16.682Z,0
2023-03-02T17:15:16.510Z,45
2023-03-02T17:20:16.493Z,0
2023-03-02T17:25:17.294Z,0
2023-03-02T17:30:16.531Z,0
2023-03-02T17:35:16.496Z,0
2023-03-02T17:40:17.026Z,0
2023-03-02T17:45:16.668Z,0
2023-03-02T17:50:16.574Z,0
2023-03-02T17:55:16.606Z,45
2023-03-02T18:00:16.652Z,0
2023-03-02T18:05:16.658Z,0
2023-03-02T18:10:16.840Z,0
2023-03-02T18:15:16.612Z,0
2023-03-02T18:20:16.879Z,0
2023-03-02T18:25:16.732Z,0
2023-03-02T18:30:16.685Z,0
2023-03-02T18:35:16.855Z,0
2023-03-02T18:40:16.951Z,0
2023-03-02T18:45:16.741Z,0
2023-03-02T18:50:17.204Z,0
2023-03-02T18:55:17.020Z,0
2023-03-02T19:00:16.979Z,0
2023-03-02T19:05:16.791Z,0
2023-03-02T19:10:16.820Z,0
2023-03-02T19:15:16.799Z,0
2023-03-02T19:20:16.913Z,0
2023-03-02T19:25:17.068Z,0
2023-03-02T19:30:17.054Z,0
2023-03-02T19:35:16.821Z,0
2023-03-02T19:40:17.159Z,0
2023-03-02T19:45:16.908Z,0
2023-03-02T19:50:16.959Z,0
2023-03-02T19:55:17.021Z,0
2023-03-02T20:00:17.398Z,0
2023-03-02T20:05:16.983Z,0
2023-03-02T20:10:18.068Z,338
2023-03-02T20:15:16.996Z,338
2023-03-02T20:20:17.051Z,338
2023-03-02T20:25:17.011Z,338
2023-03-02T20:30:17.073Z,338
2023-03-02T20:35:17.378Z,338
2023-03-02T20:40:17.287Z,338
2023-03-02T20:45:17.160Z,338
2023-03-02T20:50:17.090Z,338
2023-03-02T20:55:17.130Z,338
2023-03-02T21:00:17.149Z,338
2023-03-02T21:05:17.148Z,338
2023-03-02T21:10:17.838Z,338
2023-03-02T21:15:17.164Z,338
2023-03-02T21:20:18.279Z,338
2023-03-02T21:25:17.592Z,338
2023-03-02T21:30:17.306Z,338
2023-03-02T21:35:17.258Z,0
2023-03-02T21:40:17.362Z,338
2023-03-02T21:45:17.372Z,0
2023-03-02T21:50:17.568Z,0
2023-03-02T21:55:17.823Z,338
2023-03-02T22:00:17.371Z,338
2023-03-02T22:05:17.277Z,338
2023-03-02T22:10:17.485Z,338
2023-03-02T22:15:17.295Z,0
2023-03-02T22:20:17.812Z,0
2023-03-02T22:25:17.588Z,0
2023-03-02T22:30:17.379Z,0
2023-03-02T22:35:18.248Z,0
2023-03-02T22:40:17.402Z,338
2023-03-02T22:45:17.342Z,338
2023-03-02T22:50:17.434Z,338
2023-03-02T22:55:17.590Z,338
2023-03-02T23:00:17.590Z,338
2023-03-02T23:05:17.408Z,338
2023-03-02T23:10:17.729Z,338
2023-03-02T23:15:17.455Z,338
2023-03-02T23:20:17.494Z,338
2023-03-02T23:25:17.487Z,338
2023-03-02T23:30:17.991Z,338
2023-03-02T23:35:17.621Z,338
2023-03-02T23:40:17.776Z,0
2023-03-02T23:45:17.626Z,0
2023-03-02T23:50:17.555Z,0
2023-03-02T23:55:17.600Z,315
